createdAt,value
2019-05-15T00:00:55.768Z,58.90
2019-05-15T00:03:22.447Z,58.00
2019-05-15T00:05:49.713Z,58.40
2019-05-15T00:08:18.331Z,59.20
2019-05-15T00:10:45.112Z,59.30
2019-05-15T00:13:11.736Z,59.70
2019-05-15T00:15:40.078Z,60.20
2019-05-15T00:18:08.815Z,60.20
2019-05-15T00:20:35.706Z,61.10
2019-05-15T00:23:02.336Z,60.30
2019-05-15T00:25:29.321Z,60.10
2019-05-15T00:27:58.142Z,60.90
2019-05-15T00:30:24.929Z,62.90
2019-05-15T00:32:51.532Z,62.80
2019-05-15T00:35:18.543Z,63.00
2019-05-15T00:37:49.228Z,63.10
2019-05-15T00:40:18.308Z,62.90
2019-05-15T00:42:45.152Z,63.00
2019-05-15T00:45:13.230Z,63.30
2019-05-15T00:47:40.005Z,64.20
2019-05-15T00:50:08.870Z,64.50
2019-05-15T00:52:35.598Z,65.00
2019-05-15T00:55:02.471Z,64.90
2019-05-15T00:57:29.185Z,65.20
2019-05-15T00:59:55.830Z,65.40
2019-05-15T01:02:22.879Z,66.60
2019-05-15T01:04:50.060Z,66.60
2019-05-15T01:07:18.675Z,66.50
2019-05-15T01:09:46.028Z,66.80
2019-05-15T01:12:12.654Z,66.00
2019-05-15T01:14:40.662Z,66.40
2019-05-15T01:17:09.067Z,66.80
2019-05-15T01:19:37.946Z,67.60
2019-05-15T01:22:04.773Z,68.00
2019-05-15T01:24:31.370Z,68.10
2019-05-15T01:26:58.498Z,68.50
2019-05-15T01:29:40.061Z,68.70
2019-05-15T01:31:53.940Z,69.00
2019-05-15T01:34:20.839Z,68.70
2019-05-15T01:36:48.908Z,68.60
2019-05-15T01:39:18.319Z,69.30
2019-05-15T01:41:44.660Z,69.60
2019-05-15T01:44:12.413Z,69.80
2019-05-15T01:46:41.234Z,70.00
2019-05-15T01:49:08.114Z,69.60
2019-05-15T01:51:34.869Z,70.00
2019-05-15T01:54:01.510Z,70.40
2019-05-15T01:56:29.273Z,70.00
2019-05-15T01:58:57.951Z,70.80
2019-05-15T02:01:28.184Z,70.40
2019-05-15T02:03:54.233Z,70.30
2019-05-15T02:06:20.986Z,71.00
2019-05-15T02:08:49.664Z,71.90
2019-05-15T02:11:18.077Z,72.10
2019-05-15T02:13:44.993Z,72.70
2019-05-15T02:16:11.647Z,73.10
2019-05-15T02:18:39.211Z,72.90
2019-05-15T02:21:06.797Z,72.50
2019-05-15T02:23:34.750Z,72.60
2019-05-15T02:26:01.694Z,72.70
2019-05-15T02:28:28.902Z,74.20
2019-05-15T02:30:58.497Z,75.00
2019-05-15T02:33:24.240Z,75.00
2019-05-15T02:35:50.823Z,75.00
2019-05-15T02:38:19.994Z,76.50
2019-05-15T02:40:49.172Z,76.80
2019-05-15T02:43:14.432Z,76.80
2019-05-15T02:45:43.056Z,76.40
2019-05-15T02:48:09.687Z,77.90
2019-05-15T02:50:39.206Z,78.50
2019-05-15T02:53:09.486Z,78.90
2019-05-15T02:55:34.780Z,79.20
2019-05-15T02:58:01.378Z,78.60
2019-05-15T03:00:41.215Z,78.90
2019-05-15T03:02:59.910Z,79.40
2019-05-15T03:05:25.287Z,79.90
2019-05-15T03:07:52.233Z,79.90
2019-05-15T03:10:19.945Z,80.80
2019-05-15T03:12:49.512Z,81.20
2019-05-15T03:15:15.566Z,81.40
2019-05-15T03:17:42.383Z,81.80
2019-05-15T03:20:10.585Z,83.30
2019-05-15T03:22:40.116Z,83.00
2019-05-15T03:25:10.579Z,82.60
2019-05-15T03:27:39.160Z,82.70
2019-05-15T03:30:05.367Z,82.70
2019-05-15T03:32:40.862Z,82.80
2019-05-15T03:35:04.715Z,82.90
2019-05-15T03:37:33.671Z,83.90
2019-05-15T03:39:59.586Z,83.00
2019-05-15T03:42:29.138Z,82.80
2019-05-15T03:44:55.321Z,82.60
2019-05-15T03:47:22.017Z,82.60
2019-05-15T03:49:49.519Z,82.40
2019-05-15T03:52:19.157Z,82.10
2019-05-15T03:54:49.240Z,80.80
2019-05-15T03:57:14.518Z,80.30
2019-05-15T03:59:41.252Z,79.00
2019-05-15T04:02:08.632Z,78.60
2019-05-15T04:04:35.329Z,77.90
2019-05-15T04:07:02.035Z,77.70
2019-05-15T04:09:29.378Z,77.10
2019-05-15T04:11:59.785Z,76.00
2019-05-15T04:14:25.327Z,75.50
2019-05-15T04:16:52.049Z,75.50
2019-05-15T04:19:19.294Z,74.40
2019-05-15T04:21:49.164Z,73.00
2019-05-15T04:24:15.298Z,72.00
2019-05-15T04:26:44.304Z,71.50
2019-05-15T04:29:11.503Z,72.20
2019-05-15T04:31:52.019Z,72.30
2019-05-15T04:34:09.168Z,72.00
2019-05-15T04:36:35.186Z,71.60
2019-05-15T04:39:01.821Z,72.00
2019-05-15T04:41:29.925Z,71.70
2019-05-15T04:43:59.499Z,71.20
2019-05-15T04:46:25.955Z,70.50
2019-05-15T04:48:52.563Z,70.00
2019-05-15T04:51:19.369Z,69.40
2019-05-15T04:53:49.903Z,67.60
2019-05-15T04:56:14.882Z,66.70
2019-05-15T04:58:42.641Z,65.40
2019-05-15T05:01:09.763Z,64.90
2019-05-15T05:03:39.370Z,63.50
2019-05-15T05:06:05.200Z,62.30
2019-05-15T05:08:32.247Z,61.70
2019-05-15T05:10:59.428Z,62.00
2019-05-15T05:13:28.658Z,61.20
2019-05-15T05:15:54.747Z,59.20
2019-05-15T05:18:21.334Z,58.90
2019-05-15T05:20:48.721Z,58.50
2019-05-15T05:23:15.757Z,57.60
2019-05-15T05:25:42.367Z,57.10
2019-05-15T05:28:08.979Z,57.00
2019-05-15T05:30:38.423Z,56.40
2019-05-15T05:33:04.463Z,56.70
2019-05-15T05:35:31.149Z,57.00
2019-05-15T05:37:58.388Z,56.50
2019-05-15T05:40:25.161Z,55.90
2019-05-15T05:42:52.077Z,55.70
2019-05-15T05:45:18.927Z,55.80
2019-05-15T05:47:45.545Z,55.50
2019-05-15T05:50:14.265Z,54.80
2019-05-15T05:52:41.248Z,54.20
2019-05-15T05:55:08.808Z,53.60
2019-05-15T05:57:38.040Z,53.40
2019-05-15T06:00:04.745Z,53.30
2019-05-15T06:02:43.826Z,52.80
2019-05-15T06:05:00.356Z,52.50
2019-05-15T06:07:27.933Z,52.60
2019-05-15T06:09:54.810Z,52.00
2019-05-15T06:12:21.473Z,51.10
2019-05-15T06:14:48.467Z,50.70
2019-05-15T06:19:43.811Z,49.90
2019-05-15T06:22:10.541Z,49.50
2019-05-15T06:24:37.929Z,49.00
2019-05-15T06:27:04.763Z,48.60
2019-05-15T06:29:31.372Z,47.90
2019-05-15T06:31:58.806Z,47.20
2019-05-15T06:34:25.651Z,45.50
2019-05-15T06:36:52.332Z,43.90
2019-05-15T06:39:18.955Z,41.80
2019-05-15T06:41:48.087Z,40.00
2019-05-15T06:44:14.143Z,39.30
2019-05-15T06:46:40.817Z,38.10
2019-05-15T06:49:08.441Z,37.00
2019-05-15T06:51:37.736Z,33.50
2019-05-15T06:54:03.898Z,32.70
2019-05-15T06:56:30.509Z,31.70
2019-05-15T06:58:58.194Z,31.30
2019-05-15T07:01:25.269Z,30.60
2019-05-15T07:03:51.969Z,32.20
2019-05-15T07:06:18.705Z,33.60
2019-05-15T07:08:45.292Z,34.80
2019-05-15T07:11:11.929Z,35.00
2019-05-15T07:13:38.659Z,35.40
2019-05-15T07:16:07.887Z,35.20
2019-05-15T07:18:34.139Z,35.30
2019-05-15T07:21:00.740Z,33.80
2019-05-15T07:23:30.558Z,34.20
2019-05-15T07:25:58.559Z,33.60
2019-05-15T07:28:24.488Z,33.70
2019-05-15T07:30:51.113Z,31.70
2019-05-15T07:33:23.465Z,31.80
2019-05-15T07:35:48.689Z,31.80
2019-05-15T07:38:14.997Z,31.60
2019-05-15T07:40:41.656Z,29.60
2019-05-15T07:43:09.311Z,28.60
2019-05-15T07:45:42.557Z,28.20
2019-05-15T07:48:04.865Z,26.70
2019-05-15T07:50:31.513Z,26.50
2019-05-15T07:52:58.996Z,26.60
2019-05-15T07:55:25.834Z,26.50
2019-05-15T07:57:52.714Z,26.60
2019-05-15T08:00:21.770Z,27.10
2019-05-15T08:02:48.582Z,27.10
2019-05-15T08:05:18.247Z,26.70
2019-05-15T08:07:44.852Z,26.70
2019-05-15T08:10:31.163Z,27.70
2019-05-15T08:12:58.169Z,27.60
2019-05-15T08:15:28.562Z,27.80
2019-05-15T08:18:05.549Z,27.60
2019-05-15T08:20:23.748Z,27.30
2019-05-15T08:22:50.410Z,27.10
2019-05-15T08:25:31.223Z,26.50
2019-05-15T08:27:48.494Z,25.60
2019-05-15T08:30:18.194Z,25.80
2019-05-15T08:32:44.367Z,25.80
2019-05-15T08:35:12.713Z,26.70
2019-05-15T08:37:39.613Z,26.50
2019-05-15T08:40:08.576Z,26.10
2019-05-15T08:42:41.581Z,26.50
2019-05-15T08:45:05.832Z,26.80
2019-05-15T08:47:32.571Z,27.10
2019-05-15T08:49:59.176Z,27.30
2019-05-15T08:52:28.165Z,27.10
2019-05-15T08:54:54.481Z,25.80
2019-05-15T08:57:21.134Z,25.50
2019-05-15T08:59:48.843Z,24.40
2019-05-15T09:02:16.393Z,24.00
2019-05-15T09:04:44.289Z,23.70
2019-05-15T09:07:11.252Z,23.30
2019-05-15T09:09:38.433Z,23.50
2019-05-15T09:12:08.076Z,22.00
2019-05-15T09:14:33.794Z,21.30
2019-05-15T09:17:00.437Z,21.00
2019-05-15T09:19:28.090Z,20.70
2019-05-15T09:21:55.169Z,20.50
2019-05-15T09:24:22.098Z,21.30
2019-05-15T09:26:49.262Z,21.50
2019-05-15T09:29:18.201Z,21.00
2019-05-15T09:31:44.729Z,20.60
2019-05-15T09:34:11.903Z,20.60
2019-05-15T09:36:42.298Z,20.00
2019-05-15T09:39:08.721Z,21.30
2019-05-15T09:41:37.915Z,21.10
2019-05-15T09:44:04.079Z,21.00
2019-05-15T09:46:31.078Z,22.60
2019-05-15T09:48:59.303Z,23.10
2019-05-15T09:51:28.873Z,24.20
2019-05-15T09:53:54.883Z,25.50
2019-05-15T09:56:21.633Z,26.10
2019-05-15T09:58:48.804Z,25.60
2019-05-15T10:01:19.712Z,26.10
2019-05-15T10:03:48.269Z,25.90
2019-05-15T10:06:14.133Z,26.20
2019-05-15T10:08:40.754Z,26.40
2019-05-15T10:11:09.156Z,26.80
2019-05-15T10:13:38.249Z,26.80
2019-05-15T10:16:05.060Z,27.20
2019-05-15T10:18:31.645Z,27.10
2019-05-15T10:20:58.552Z,27.50
2019-05-15T10:23:25.199Z,27.50
2019-05-15T10:25:51.925Z,27.30
2019-05-15T10:28:19.074Z,27.00
2019-05-15T10:30:48.803Z,27.00
2019-05-15T10:33:14.898Z,27.50
2019-05-15T10:35:41.480Z,27.80
2019-05-15T10:38:08.826Z,27.80
2019-05-15T10:40:35.774Z,27.90
2019-05-15T10:43:02.446Z,28.60
2019-05-15T10:45:29.711Z,28.40
2019-05-15T10:47:58.539Z,29.40
2019-05-15T10:50:28.157Z,29.30
2019-05-15T10:52:53.945Z,29.40
2019-05-15T10:55:21.022Z,30.30
2019-05-15T10:57:47.683Z,30.60
2019-05-15T11:00:15.698Z,30.50
2019-05-15T11:02:42.377Z,30.30
2019-05-15T11:05:10.206Z,30.40
2019-05-15T11:07:39.324Z,30.80
2019-05-15T11:10:08.443Z,31.40
2019-05-15T11:12:34.903Z,31.50
2019-05-15T11:15:01.610Z,31.60
2019-05-15T11:17:28.730Z,31.40
2019-05-15T11:19:58.626Z,31.30
2019-05-15T11:22:25.424Z,31.80
2019-05-15T11:24:53.083Z,32.00
2019-05-15T11:27:20.041Z,32.00
2019-05-15T11:29:47.784Z,32.10
2019-05-15T11:32:14.629Z,32.30
2019-05-15T11:34:41.267Z,31.70
2019-05-15T11:37:07.979Z,31.30
2019-05-15T11:39:34.625Z,31.50
2019-05-15T11:42:01.301Z,31.40
2019-05-15T11:44:28.466Z,31.30
2019-05-15T11:46:55.091Z,31.90
2019-05-15T11:49:22.175Z,31.80
2019-05-15T11:51:49.330Z,31.00
2019-05-15T11:54:18.914Z,31.20
2019-05-15T11:56:48.858Z,30.90
2019-05-15T11:59:14.808Z,29.60
2019-05-15T12:01:41.853Z,29.20
2019-05-15T12:04:09.297Z,29.70
2019-05-15T12:06:38.412Z,29.50
2019-05-15T12:09:05.930Z,29.10
2019-05-15T12:11:36.983Z,29.40
2019-05-15T12:14:01.426Z,29.30
2019-05-15T12:16:29.059Z,28.70
2019-05-15T12:18:55.937Z,28.50
2019-05-15T12:21:22.769Z,28.20
2019-05-15T12:23:49.551Z,27.70
2019-05-15T12:26:16.368Z,27.60
2019-05-15T12:28:43.077Z,28.30
2019-05-15T12:31:09.769Z,28.50
2019-05-15T12:33:38.427Z,28.10
2019-05-15T12:36:05.337Z,28.20
2019-05-15T12:38:32.449Z,28.60
2019-05-15T13:00:48.943Z,29.40
2019-05-15T13:03:18.213Z,29.50
2019-05-15T13:05:45.129Z,30.60
2019-05-15T13:08:11.807Z,31.20
2019-05-15T13:10:38.885Z,32.00
2019-05-15T13:13:08.511Z,32.50
2019-05-15T13:15:34.473Z,32.80
2019-05-15T13:18:01.225Z,33.60
2019-05-15T13:20:28.860Z,34.00
2019-05-15T13:22:55.676Z,34.70
2019-05-15T13:25:23.443Z,36.60
2019-05-15T13:27:50.272Z,38.80
2019-05-15T13:30:18.340Z,41.70
2019-05-15T13:32:45.145Z,45.90
2019-05-15T13:35:12.545Z,49.70
2019-05-15T13:37:39.312Z,55.30
2019-05-15T13:40:07.734Z,54.80
2019-05-15T13:42:34.618Z,57.10
2019-05-15T13:45:01.369Z,64.00
2019-05-15T13:47:28.241Z,66.20
2019-05-15T13:49:54.940Z,77.90
2019-05-15T13:52:21.694Z,82.10
2019-05-15T13:54:48.475Z,78.20
2019-05-15T13:57:17.936Z,79.30
2019-05-15T13:59:48.191Z,66.60
2019-05-15T14:02:15.484Z,67.50
2019-05-15T14:04:43.323Z,60.70
2019-05-15T14:07:10.023Z,67.30
2019-05-15T14:09:43.600Z,68.10
2019-05-15T14:12:05.128Z,65.80
2019-05-15T14:14:31.749Z,66.00
2019-05-15T14:16:59.223Z,62.00
2019-05-15T14:19:27.989Z,62.10
2019-05-15T14:21:54.936Z,69.80
2019-05-15T14:24:21.772Z,60.70
2019-05-15T14:26:48.704Z,59.80
2019-05-15T14:29:15.404Z,59.20
2019-05-15T14:31:42.133Z,60.90
2019-05-15T14:34:08.981Z,58.00
2019-05-15T14:36:36.583Z,58.60
2019-05-15T14:39:07.904Z,56.10
2019-05-15T14:41:34.035Z,50.30
2019-05-15T14:44:13.155Z,52.00
2019-05-15T14:46:29.183Z,49.10
2019-05-15T14:48:58.185Z,50.30
2019-05-15T14:51:24.525Z,45.90
2019-05-15T14:53:51.124Z,48.30
2019-05-15T14:56:18.643Z,45.40
2019-05-15T14:58:47.861Z,46.70
2019-05-15T15:01:15.526Z,44.00
2019-05-15T15:03:42.270Z,43.80
2019-05-15T15:06:08.969Z,45.70
2019-05-15T15:08:35.678Z,45.20
2019-05-15T15:11:02.319Z,44.70
2019-05-15T15:13:29.233Z,43.90
2019-05-15T15:15:56.116Z,43.60
2019-05-15T15:18:22.960Z,43.00
2019-05-15T15:20:49.607Z,44.50
2019-05-15T15:23:16.394Z,42.90
2019-05-15T15:25:43.153Z,43.30
2019-05-15T15:28:09.951Z,44.60
2019-05-15T15:30:38.538Z,43.90
2019-05-15T15:33:05.204Z,43.90
2019-05-15T15:35:31.942Z,44.10
2019-05-15T15:37:58.741Z,44.30
2019-05-15T15:40:28.178Z,44.40
2019-05-15T15:42:54.156Z,44.40
2019-05-15T15:45:21.054Z,44.10
2019-05-15T15:47:48.163Z,44.10
2019-05-15T15:50:18.142Z,44.90
2019-05-15T15:52:44.825Z,45.00
2019-05-15T15:55:12.160Z,44.60
2019-05-15T15:57:39.836Z,45.20
2019-05-15T16:00:08.846Z,44.40
2019-05-15T16:02:35.623Z,44.40
2019-05-15T16:05:02.455Z,44.50
2019-05-15T16:07:29.375Z,44.50
2019-05-15T16:09:55.991Z,44.40
2019-05-15T16:12:22.629Z,43.90
2019-05-15T16:14:49.368Z,44.30
2019-05-15T16:17:18.126Z,43.50
2019-05-15T16:19:44.596Z,43.20
2019-05-15T16:22:11.306Z,43.10
2019-05-15T16:24:38.677Z,42.80
2019-05-15T16:27:05.780Z,42.90
2019-05-15T16:29:34.662Z,43.90
2019-05-15T16:32:01.474Z,43.40
2019-05-15T16:34:28.474Z,44.10
2019-05-15T16:36:55.180Z,44.20
2019-05-15T16:39:21.905Z,44.10
2019-05-15T16:41:49.022Z,44.50
2019-05-15T16:44:15.839Z,45.60
2019-05-15T16:46:42.659Z,45.90
2019-05-15T16:49:09.311Z,46.30
2019-05-15T16:51:38.118Z,46.00
2019-05-15T16:54:04.680Z,46.40
2019-05-15T16:56:31.299Z,47.60
2019-05-15T16:58:59.685Z,47.60
2019-05-15T17:01:28.967Z,48.50
2019-05-15T17:03:55.395Z,48.30
2019-05-15T17:06:22.087Z,48.30
2019-05-15T17:08:48.937Z,48.30
2019-05-15T17:11:15.733Z,49.00
2019-05-15T17:13:42.884Z,49.30
2019-05-15T17:16:10.008Z,48.70
2019-05-15T17:18:38.098Z,49.10
2019-05-15T17:21:04.969Z,49.40
2019-05-15T17:23:32.021Z,49.80
2019-05-15T17:25:59.180Z,51.40
2019-05-15T17:28:25.934Z,52.00
2019-05-15T17:30:52.583Z,52.80
2019-05-15T17:33:19.181Z,53.60
2019-05-15T17:35:45.896Z,54.40
2019-05-15T17:38:12.644Z,54.10
2019-05-15T17:40:39.227Z,54.80
2019-05-15T17:43:05.845Z,55.40
2019-05-15T17:45:33.018Z,56.00
2019-05-15T17:47:59.687Z,58.00
2019-05-15T17:50:28.332Z,60.30
2019-05-15T17:52:54.921Z,68.00
2019-05-15T17:55:21.750Z,76.10
2019-05-15T17:57:56.499Z,82.30
2019-05-15T18:00:19.055Z,84.10
2019-05-15T18:02:48.608Z,89.00
2019-05-15T18:05:18.620Z,89.10
2019-05-15T18:07:44.779Z,93.30
2019-05-15T18:10:11.596Z,93.60
2019-05-15T18:12:39.026Z,91.10
2019-05-15T18:15:08.792Z,92.10
2019-05-15T18:17:54.933Z,90.10
2019-05-15T18:20:25.146Z,90.00
2019-05-15T18:22:52.099Z,91.40
2019-05-15T18:25:18.936Z,89.10
2019-05-15T18:27:47.903Z,86.40
2019-05-15T18:30:14.825Z,86.90
2019-05-15T18:32:41.462Z,86.30
2019-05-15T18:35:08.817Z,84.70
2019-05-15T18:37:35.547Z,83.10
2019-05-15T18:40:06.072Z,82.00
2019-05-15T18:42:31.095Z,80.00
2019-05-15T18:44:58.349Z,80.90
2019-05-15T18:47:25.331Z,80.20
2019-05-15T18:50:04.026Z,80.30
2019-05-15T18:52:20.842Z,78.00
2019-05-15T18:54:48.173Z,76.60
2019-05-15T18:57:15.025Z,75.30
2019-05-15T18:59:41.691Z,74.70
2019-05-15T19:02:08.568Z,73.20
2019-05-15T19:04:35.203Z,73.60
2019-05-15T19:07:01.831Z,72.90
2019-05-15T19:09:28.435Z,73.10
2019-05-15T19:11:55.396Z,72.30
2019-05-15T19:14:23.813Z,72.20
2019-05-15T19:16:50.949Z,73.10
2019-05-15T19:19:18.531Z,73.50
2019-05-15T19:21:45.311Z,72.50
2019-05-15T19:24:11.936Z,72.40
2019-05-15T19:26:39.155Z,72.10
2019-05-15T19:29:25.437Z,72.10
2019-05-15T19:31:52.183Z,71.30
2019-05-15T19:34:19.152Z,72.10
2019-05-15T19:36:45.862Z,70.40
2019-05-15T19:39:14.435Z,69.80
2019-05-15T19:41:41.028Z,70.70
2019-05-15T19:44:08.777Z,71.50
2019-05-15T19:46:35.640Z,72.10
2019-05-15T19:49:02.273Z,70.40
2019-05-15T19:51:29.186Z,70.40
2019-05-15T19:53:58.475Z,69.90
2019-05-15T19:56:24.464Z,69.90
2019-05-15T19:58:51.091Z,70.50
2019-05-15T20:01:18.851Z,69.40
2019-05-15T20:03:50.678Z,69.50
2019-05-15T20:06:14.193Z,70.00
2019-05-15T20:08:40.902Z,69.30
2019-05-15T20:11:10.443Z,68.50
2019-05-15T20:13:38.396Z,67.50
2019-05-15T20:16:05.282Z,68.60
2019-05-15T20:18:31.968Z,67.30
2019-05-15T20:20:58.896Z,67.20
2019-05-15T20:23:25.631Z,65.90
2019-05-15T20:25:52.450Z,65.50
2019-05-15T20:28:19.218Z,65.90
2019-05-15T20:30:48.093Z,65.90
2019-05-15T20:33:14.487Z,66.50
2019-05-15T20:35:41.378Z,66.20
2019-05-15T20:38:08.328Z,65.60
2019-05-15T20:40:34.937Z,65.10
2019-05-15T20:43:01.756Z,65.00
2019-05-15T20:45:29.252Z,65.00
2019-05-15T20:47:58.524Z,64.10
2019-05-15T20:50:24.868Z,65.10
2019-05-15T20:52:51.776Z,64.50
2019-05-15T20:55:18.586Z,64.50
2019-05-15T20:57:47.723Z,64.30
2019-05-15T21:00:15.430Z,63.90
2019-05-15T21:02:42.033Z,63.50
2019-05-15T21:05:09.213Z,63.30
2019-05-15T21:07:39.962Z,62.90
2019-05-15T21:10:04.794Z,63.40
2019-05-15T21:12:31.811Z,62.40
2019-05-15T21:14:58.727Z,62.20
2019-05-15T21:17:25.380Z,62.90
2019-05-15T21:19:52.753Z,62.00
2019-05-15T21:22:19.368Z,60.80
2019-05-15T21:24:45.971Z,61.90
2019-05-15T21:27:12.625Z,61.90
2019-05-15T21:29:40.538Z,61.30
2019-05-15T21:32:08.442Z,62.00
2019-05-15T21:34:40.661Z,61.50
2019-05-15T21:37:04.094Z,61.30
2019-05-15T21:39:30.793Z,60.70
2019-05-15T21:41:58.297Z,60.60
2019-05-15T21:44:25.357Z,61.10
2019-05-15T21:46:52.033Z,60.80
2019-05-15T21:49:19.204Z,60.30
2019-05-15T21:51:47.913Z,60.80
2019-05-15T21:54:14.731Z,60.40
2019-05-15T21:56:41.975Z,60.50
2019-05-15T21:59:08.612Z,60.40
2019-05-15T22:01:35.510Z,60.90
2019-05-15T22:04:02.345Z,60.30
2019-05-15T22:06:29.436Z,61.00
2019-05-15T22:08:58.239Z,59.70
2019-05-15T22:11:24.945Z,60.40
2019-05-15T22:13:51.556Z,60.20
2019-05-15T22:16:19.023Z,59.70
2019-05-15T22:18:47.712Z,59.60
2019-05-15T22:21:14.600Z,59.70
2019-05-15T22:23:41.224Z,59.80
2019-05-15T22:26:07.961Z,60.00
2019-05-15T22:28:35.035Z,61.20
2019-05-15T22:31:01.721Z,60.10
2019-05-15T22:33:28.526Z,60.40
2019-05-15T22:35:55.805Z,60.20
2019-05-15T22:38:22.790Z,60.50
2019-05-15T22:40:49.441Z,61.00
2019-05-15T22:43:18.452Z,60.80
2019-05-15T22:45:45.067Z,61.00
2019-05-15T22:48:12.440Z,61.20
2019-05-15T22:50:39.214Z,61.60
2019-05-15T22:53:05.911Z,62.00
2019-05-15T22:55:32.627Z,63.60
2019-05-15T22:57:59.649Z,68.20
2019-05-15T23:00:28.983Z,72.30
2019-05-15T23:02:57.839Z,75.70
2019-05-15T23:05:28.465Z,79.90
2019-05-15T23:07:53.000Z,86.00
2019-05-15T23:10:20.152Z,85.00
2019-05-15T23:12:48.692Z,87.60
2019-05-15T23:15:18.711Z,90.90
2019-05-15T23:17:44.771Z,93.50
2019-05-15T23:20:11.807Z,93.20
2019-05-15T23:22:38.729Z,96.40
2019-05-15T23:25:05.950Z,98.80
2019-05-15T23:27:32.639Z,99.90
2019-05-15T23:29:59.326Z,99.90
2019-05-15T23:32:26.024Z,99.40
2019-05-15T23:34:52.700Z,99.90
2019-05-15T23:37:19.326Z,99.90
2019-05-15T23:39:48.554Z,99.90
2019-05-15T23:42:14.711Z,99.90
2019-05-15T23:44:41.490Z,99.70
2019-05-15T23:47:08.425Z,99.90
2019-05-15T23:49:35.029Z,99.90
2019-05-15T23:52:01.629Z,99.90
2019-05-15T23:54:28.227Z,99.90
2019-05-15T23:56:54.827Z,99.90
2019-05-15T23:59:21.536Z,99.90
